Time;durP1;ratioP1;P1;durP2;ratioP2;P2;SDS_P1;SDS_P2;PMS_P1;PMS_P2;Temp;Humidity;BMP_temperature;BMP_pressure;BME280_temperature;BME280_humidity;BME280_pressure;Samples;Min_cycle;Max_cycle;Signal;HPM_P1;HPM_P2
2022/10/28 00:01:06;;;;;;;9.27;4.18;;;22.20;66.70;;;;;;5071991;28;20036;-73
2022/10/28 00:03:36;;;;;;;12.65;4.72;;;22.30;67.10;;;;;;5071998;28;20036;-73
2022/10/28 00:06:04;;;;;;;13.73;4.50;;;22.30;67.30;;;;;;5067895;28;20036;-73
2022/10/28 00:08:31;;;;;;;12.32;5.00;;;22.30;67.40;;;;;;5072067;28;20024;-73
2022/10/28 00:11:10;;;;;;;11.82;4.57;;;22.30;67.80;;;;;;5069989;28;20347;-73
2022/10/28 00:13:36;;;;;;;10.65;4.85;;;22.30;68.10;;;;;;5070981;28;20563;-73
2022/10/28 00:16:08;;;;;;;12.35;4.35;;;22.30;68.20;;;;;;5071753;28;20082;-72
2022/10/28 00:18:34;;;;;;;16.52;5.18;;;22.30;68.50;;;;;;5070949;28;20033;-73
2022/10/28 00:21:02;;;;;;;14.20;4.38;;;22.20;67.50;;;;;;5070909;28;20032;-73
2022/10/28 00:23:28;;;;;;;9.65;4.43;;;22.30;68.00;;;;;;5070749;28;20508;-72
2022/10/28 00:25:54;;;;;;;9.93;4.20;;;22.30;68.40;;;;;;5069726;28;20020;-73
2022/10/28 00:28:19;;;;;;;14.73;4.28;;;22.30;68.10;;;;;;5069696;28;20031;-72
2022/10/28 00:30:45;;;;;;;11.07;4.25;;;22.20;68.20;;;;;;5087869;28;20029;-73
2022/10/28 00:33:11;;;;;;;11.48;4.65;;;22.30;68.40;;;;;;5069226;28;20033;-72
2022/10/28 00:35:36;;;;;;;8.55;4.13;;;22.30;68.40;;;;;;5071352;28;20025;-73
2022/10/28 00:38:02;;;;;;;10.68;4.00;;;22.30;68.40;;;;;;5069766;28;20058;-72
2022/10/28 00:40:33;;;;;;;11.55;4.43;;;22.20;68.40;;;;;;5069601;28;20429;-74
2022/10/28 00:42:59;;;;;;;11.35;4.78;;;22.20;68.40;;;;;;5069626;28;20119;-73
2022/10/28 00:45:25;;;;;;;9.98;4.22;;;22.30;68.50;;;;;;5070760;28;20554;-73
2022/10/28 00:47:59;;;;;;;7.85;3.97;;;22.20;68.20;;;;;;5052560;28;20093;-73
2022/10/28 00:50:33;;;;;;;11.60;4.50;;;22.20;68.50;;;;;;5068264;28;20032;-73
2022/10/28 00:53:07;;;;;;;8.68;4.10;;;22.30;68.50;;;;;;5069870;28;20055;-73
2022/10/28 00:55:34;;;;;;;8.63;4.07;;;22.30;68.40;;;;;;5071152;28;20056;-72
2022/10/28 00:58:02;;;;;;;12.23;4.18;;;22.30;68.80;;;;;;5070517;28;20025;-73
2022/10/28 01:00:28;;;;;;;13.60;4.22;;;22.30;68.70;;;;;;5070978;28;20078;-73
2022/10/28 01:02:55;;;;;;;11.70;4.40;;;22.30;68.80;;;;;;5069229;28;20028;-72
2022/10/28 01:05:24;;;;;;;10.02;4.25;;;22.30;68.80;;;;;;5069779;28;20024;-73
2022/10/28 01:07:52;;;;;;;9.98;3.80;;;22.30;68.50;;;;;;5070928;28;20387;-74
2022/10/28 01:10:20;;;;;;;12.10;4.55;;;22.30;68.50;;;;;;5038372;22;20040;-73
2022/10/28 01:13:11;;;;;;;7.97;4.00;;;22.30;68.40;;;;;;4988524;28;20044;-73
2022/10/28 01:16:10;;;;;;;10.48;4.00;;;22.30;68.50;;;;;;4980221;28;20023;-73
2022/10/28 01:18:51;;;;;;;11.23;3.80;;;22.30;68.70;;;;;;5000097;28;20106;-73
2022/10/28 01:21:43;;;;;;;10.60;4.15;;;22.30;68.20;;;;;;4968932;28;20055;-73
2022/10/28 01:24:37;;;;;;;9.85;3.65;;;22.30;68.50;;;;;;4970098;28;20046;-73
2022/10/28 01:27:35;;;;;;;9.27;4.18;;;22.30;68.70;;;;;;4949947;29;20031;-73
2022/10/28 01:30:11;;;;;;;11.27;4.40;;;22.30;68.90;;;;;;4966864;28;20046;-73
2022/10/28 01:32:49;;;;;;;11.18;4.07;;;22.30;68.80;;;;;;4968692;28;20046;-73
2022/10/28 01:35:28;;;;;;;9.90;4.18;;;22.30;68.60;;;;;;4970115;28;20500;-73
2022/10/28 01:38:02;;;;;;;11.55;4.25;;;22.30;68.70;;;;;;4970231;28;20388;-73
2022/10/28 01:40:53;;;;;;;11.10;4.00;;;22.30;68.70;;;;;;4970256;28;20027;-73
2022/10/28 01:43:29;;;;;;;11.07;3.90;;;22.30;68.80;;;;;;4978551;28;20404;-73
2022/10/28 01:46:10;;;;;;;9.80;3.67;;;22.30;68.60;;;;;;4999436;28;20086;-73
2022/10/28 01:48:49;;;;;;;6.97;3.58;;;22.20;68.50;;;;;;5004893;28;20037;-73
2022/10/28 01:51:30;;;;;;;11.93;3.95;;;22.30;68.50;;;;;;4978430;28;20060;-73
2022/10/28 01:53:58;;;;;;;12.30;3.45;;;22.30;68.60;;;;;;4975297;28;20030;-73
2022/10/28 01:56:29;;;;;;;10.07;3.83;;;22.30;68.60;;;;;;4976324;28;20022;-73
2022/10/28 01:58:57;;;;;;;24.50;3.65;;;22.30;69.10;;;;;;4976609;28;20554;-73
2022/10/28 02:01:25;;;;;;;9.50;3.92;;;22.30;68.70;;;;;;5020976;28;20394;-73
2022/10/28 02:03:52;;;;;;;7.93;3.78;;;22.30;69.10;;;;;;5006283;28;20459;-73
2022/10/28 02:06:21;;;;;;;10.70;4.13;;;22.30;69.10;;;;;;5003143;28;20031;-73
2022/10/28 02:09:20;;;;;;;9.82;3.70;;;22.30;69.20;;;;;;5025998;28;20026;-74
2022/10/28 02:12:02;;;;;;;7.53;3.38;;;22.30;69.20;;;;;;4977823;28;20031;-74
2022/10/28 02:14:43;;;;;;;9.32;4.20;;;22.30;68.90;;;;;;4995613;28;20118;-73
2022/10/28 02:17:42;;;;;;;8.25;3.60;;;22.30;69.10;;;;;;4975282;28;20493;-73
2022/10/28 02:20:26;;;;;;;8.23;3.90;;;22.30;69.00;;;;;;4976504;28;20419;-73
2022/10/28 02:23:26;;;;;;;9.57;3.80;;;22.30;69.10;;;;;;4980243;28;20529;-73
2022/10/28 02:26:13;;;;;;;9.85;3.42;;;22.30;69.10;;;;;;4975706;28;20193;-73
2022/10/28 02:28:49;;;;;;;7.63;3.60;;;22.30;68.70;;;;;;4964715;28;20023;-73
2022/10/28 02:31:30;;;;;;;10.05;3.90;;;22.30;68.90;;;;;;5019103;28;20035;-73
2022/10/28 02:34:01;;;;;;;11.35;3.65;;;22.30;69.00;;;;;;5029594;28;20395;-73
2022/10/28 02:36:31;;;;;;;14.18;3.38;;;22.30;69.00;;;;;;5019006;28;20404;-74
2022/10/28 02:38:59;;;;;;;8.07;3.42;;;22.30;68.80;;;;;;4977936;28;20510;-73
2022/10/28 02:41:33;;;;;;;12.82;4.03;;;22.30;69.10;;;;;;5021419;28;20101;-73
2022/10/28 02:44:05;;;;;;;14.40;4.15;;;22.30;69.00;;;;;;5002768;28;20034;-73
2022/10/28 02:46:34;;;;;;;10.07;3.70;;;22.30;68.90;;;;;;5005321;28;20488;-74
2022/10/28 02:49:09;;;;;;;9.25;3.80;;;22.30;69.10;;;;;;5003635;28;20026;-73
2022/10/28 02:51:40;;;;;;;8.85;3.47;;;22.30;69.30;;;;;;5010660;28;20058;-73
2022/10/28 02:54:33;;;;;;;9.98;3.60;;;22.30;69.00;;;;;;4971228;28;20026;-73
2022/10/28 02:57:04;;;;;;;9.85;3.20;;;22.30;69.10;;;;;;4984152;28;20026;-73
2022/10/28 02:59:30;;;;;;;7.50;3.20;;;22.30;69.00;;;;;;4996233;28;20037;-73
2022/10/28 03:01:56;;;;;;;8.00;3.13;;;22.30;68.80;;;;;;4979322;28;20046;-73
2022/10/28 03:04:22;;;;;;;10.20;3.70;;;22.30;68.80;;;;;;5001725;28;20023;-73
2022/10/28 03:06:48;;;;;;;8.15;3.83;;;22.30;68.90;;;;;;5019701;28;20042;-73
2022/10/28 03:09:13;;;;;;;10.02;4.00;;;22.30;69.10;;;;;;4980920;28;20081;-73
2022/10/28 03:11:39;;;;;;;8.05;3.50;;;22.30;69.30;;;;;;4978969;28;20116;-74
2022/10/28 03:14:05;;;;;;;15.15;3.35;;;22.30;69.30;;;;;;4995845;28;20377;-73
2022/10/28 03:16:31;;;;;;;13.82;3.78;;;22.30;69.30;;;;;;4995433;28;20056;-73
2022/10/28 03:18:57;;;;;;;8.95;3.33;;;22.30;69.30;;;;;;5009548;28;20033;-74
2022/10/28 03:21:22;;;;;;;10.57;3.28;;;22.30;69.20;;;;;;5010397;28;20034;-74
2022/10/28 03:23:48;;;;;;;16.60;3.92;;;22.30;69.40;;;;;;5014503;28;20023;-74
2022/10/28 03:26:14;;;;;;;14.82;3.75;;;22.30;69.10;;;;;;5004454;28;20388;-74
2022/10/28 03:28:40;;;;;;;18.60;4.40;;;22.30;69.10;;;;;;5034439;28;20019;-74
2022/10/28 03:31:05;;;;;;;9.57;3.47;;;22.30;68.80;;;;;;5005467;28;20026;-74
2022/10/28 03:33:31;;;;;;;9.25;3.78;;;22.30;68.70;;;;;;5015963;28;20034;-75
2022/10/28 03:35:57;;;;;;;8.63;3.45;;;22.30;68.60;;;;;;5025143;28;20027;-74
2022/10/28 03:38:23;;;;;;;9.15;3.58;;;22.30;68.60;;;;;;4976470;28;20023;-74
2022/10/28 03:40:49;;;;;;;9.07;3.00;;;22.30;68.60;;;;;;5005822;28;20485;-74
2022/10/28 03:43:16;;;;;;;9.93;3.80;;;22.30;68.50;;;;;;4999323;28;20392;-74
2022/10/28 03:45:43;;;;;;;7.28;3.58;;;22.30;68.50;;;;;;5012384;28;20111;-74
2022/10/28 03:48:09;;;;;;;9.55;3.70;;;22.30;68.50;;;;;;4981802;28;20381;-74
2022/10/28 03:50:34;;;;;;;8.43;3.67;;;22.30;68.60;;;;;;5019604;28;20078;-75
2022/10/28 03:53:00;;;;;;;11.13;3.63;;;22.30;68.70;;;;;;5022632;28;20551;-74
2022/10/28 03:55:26;;;;;;;14.98;3.55;;;22.30;68.70;;;;;;4988629;28;20030;-74
2022/10/28 03:57:52;;;;;;;9.90;3.15;;;22.30;69.30;;;;;;5014195;28;20029;-73
2022/10/28 04:00:19;;;;;;;10.75;4.05;;;22.30;69.70;;;;;;5018520;28;20448;-74
2022/10/28 04:02:52;;;;;;;11.23;3.85;;;22.30;69.10;;;;;;4977606;28;20685;-74
2022/10/28 04:05:19;;;;;;;9.02;3.65;;;22.30;69.60;;;;;;4977321;28;20156;-74
2022/10/28 04:07:44;;;;;;;14.18;3.40;;;22.30;70.10;;;;;;5015269;28;20045;-74
2022/10/28 04:10:10;;;;;;;10.50;3.30;;;22.30;69.90;;;;;;5015778;28;20125;-73
2022/10/28 04:12:36;;;;;;;9.05;3.17;;;22.30;69.90;;;;;;5019229;28;20084;-74
2022/10/28 04:15:03;;;;;;;11.68;3.55;;;22.30;69.70;;;;;;4976634;28;20030;-73
2022/10/28 04:17:29;;;;;;;7.15;3.40;;;22.30;70.00;;;;;;4999003;28;20031;-73
2022/10/28 04:19:54;;;;;;;7.20;3.35;;;22.30;69.70;;;;;;4999013;28;20023;-73
2022/10/28 04:22:20;;;;;;;8.93;3.40;;;22.30;70.00;;;;;;5002181;28;20369;-73
2022/10/28 04:24:46;;;;;;;13.23;3.67;;;22.30;70.00;;;;;;5015871;28;20081;-73
2022/10/28 04:27:12;;;;;;;11.10;3.47;;;22.30;70.30;;;;;;4999212;28;20035;-73
2022/10/28 04:29:37;;;;;;;12.13;3.42;;;22.30;70.10;;;;;;5003419;28;20030;-73
2022/10/28 04:32:03;;;;;;;9.57;3.35;;;22.30;70.10;;;;;;5015470;28;20317;-73
2022/10/28 04:34:29;;;;;;;11.02;3.05;;;22.30;69.90;;;;;;4975129;28;20031;-73
2022/10/28 04:36:55;;;;;;;8.23;3.40;;;22.30;69.90;;;;;;5018799;28;20019;-73
2022/10/28 04:39:21;;;;;;;5.57;3.00;;;22.30;70.00;;;;;;4988167;28;20034;-73
2022/10/28 04:41:47;;;;;;;6.22;3.22;;;22.30;69.90;;;;;;5027012;28;20367;-73
2022/10/28 04:44:12;;;;;;;7.32;3.53;;;22.30;70.00;;;;;;5000474;28;20031;-74
2022/10/28 04:46:39;;;;;;;7.97;3.30;;;22.30;69.90;;;;;;5003620;28;20507;-73
2022/10/28 04:49:05;;;;;;;10.13;3.40;;;22.30;69.50;;;;;;5018638;28;20038;-73
2022/10/28 04:51:30;;;;;;;10.52;3.03;;;22.30;69.70;;;;;;4997132;28;20030;-73
2022/10/28 04:53:56;;;;;;;9.65;3.50;;;22.30;69.60;;;;;;5019963;28;20027;-73
2022/10/28 04:56:22;;;;;;;7.53;3.10;;;22.30;69.50;;;;;;4983518;28;20019;-75
2022/10/28 04:58:48;;;;;;;7.97;3.00;;;22.30;69.60;;;;;;5011318;28;20024;-74
2022/10/28 05:01:13;;;;;;;11.20;2.92;;;22.30;69.70;;;;;;4972942;28;20023;-75
2022/10/28 05:03:39;;;;;;;7.90;3.20;;;22.30;69.60;;;;;;4991694;28;20352;-74
2022/10/28 05:06:05;;;;;;;10.18;3.35;;;22.30;69.70;;;;;;4969832;28;20510;-74
2022/10/28 05:08:31;;;;;;;10.18;3.25;;;22.30;69.60;;;;;;5014616;28;20034;-74
2022/10/28 05:10:56;;;;;;;9.18;3.70;;;22.30;70.00;;;;;;4980824;28;20038;-74
2022/10/28 05:13:22;;;;;;;8.70;3.05;;;22.30;69.50;;;;;;5020172;28;20115;-74
2022/10/28 05:15:49;;;;;;;8.43;3.42;;;22.30;69.80;;;;;;4980994;28;20041;-74
2022/10/28 05:18:14;;;;;;;5.50;3.08;;;22.30;69.80;;;;;;5007290;28;20035;-74
2022/10/28 05:20:41;;;;;;;10.15;3.53;;;22.30;69.80;;;;;;4978703;28;20030;-74
2022/10/28 05:23:06;;;;;;;7.55;3.20;;;22.30;69.80;;;;;;4978464;28;20034;-74
2022/10/28 05:25:32;;;;;;;7.90;3.28;;;22.30;70.00;;;;;;4984425;28;20473;-74
2022/10/28 05:27:59;;;;;;;6.75;3.17;;;22.30;69.90;;;;;;5003494;28;20041;-74
2022/10/28 05:30:25;;;;;;;10.48;3.15;;;22.30;70.10;;;;;;5008854;28;20027;-74
2022/10/28 05:32:58;;;;;;;10.45;3.28;;;22.30;70.10;;;;;;5017545;28;20038;-74
2022/10/28 05:35:24;;;;;;;8.20;3.50;;;22.30;70.00;;;;;;5011233;28;20038;-74
2022/10/28 05:37:50;;;;;;;9.13;3.33;;;22.30;70.10;;;;;;5017345;28;20053;-75
2022/10/28 05:40:15;;;;;;;9.63;3.13;;;22.30;69.50;;;;;;4980482;28;20034;-74
2022/10/28 05:42:42;;;;;;;10.75;3.50;;;22.30;69.60;;;;;;4985764;28;20030;-73
2022/10/28 05:45:09;;;;;;;8.82;3.10;;;22.30;70.00;;;;;;4961611;28;20496;-74
2022/10/28 05:47:35;;;;;;;6.30;3.22;;;22.30;69.50;;;;;;5018551;28;20034;-74
2022/10/28 05:50:01;;;;;;;8.07;3.35;;;22.30;69.70;;;;;;4988444;28;20038;-74
2022/10/28 05:52:26;;;;;;;7.28;3.20;;;22.30;69.60;;;;;;5017964;28;20032;-74
2022/10/28 05:54:52;;;;;;;8.80;3.40;;;22.30;69.40;;;;;;4964591;28;20058;-74
2022/10/28 05:57:18;;;;;;;7.32;2.95;;;22.30;69.40;;;;;;4966527;28;20032;-73
2022/10/28 05:59:44;;;;;;;8.63;3.65;;;22.30;69.50;;;;;;4996225;28;20028;-74
2022/10/28 06:02:14;;;;;;;5.78;3.08;;;22.30;69.30;;;;;;4978027;28;20364;-74
2022/10/28 06:04:40;;;;;;;6.90;3.10;;;22.30;69.60;;;;;;4960673;28;20369;-74
2022/10/28 06:07:06;;;;;;;6.20;2.97;;;22.30;69.40;;;;;;4981228;28;20026;-74
2022/10/28 06:09:32;;;;;;;6.53;2.95;;;22.30;69.20;;;;;;5005861;28;20041;-73
2022/10/28 06:11:58;;;;;;;8.70;3.25;;;22.30;69.30;;;;;;4966698;28;20066;-75
2022/10/28 06:14:24;;;;;;;11.00;3.50;;;22.30;69.50;;;;;;4977330;28;20031;-75
2022/10/28 06:16:50;;;;;;;9.93;3.63;;;22.20;69.50;;;;;;5016889;28;20026;-75
2022/10/28 06:19:16;;;;;;;8.82;3.33;;;22.20;69.40;;;;;;4980144;28;20026;-74
2022/10/28 06:21:42;;;;;;;6.32;3.15;;;22.30;70.00;;;;;;4981731;28;20027;-74
2022/10/28 06:24:08;;;;;;;8.27;3.33;;;22.30;69.80;;;;;;4966719;28;20038;-74
2022/10/28 06:26:34;;;;;;;8.82;3.40;;;22.30;70.60;;;;;;5018924;28;20025;-74
2022/10/28 06:29:00;;;;;;;7.32;2.97;;;22.20;69.70;;;;;;4977722;28;20027;-74
2022/10/28 06:31:25;;;;;;;7.85;3.65;;;22.30;69.80;;;;;;4971329;28;20491;-74
2022/10/28 06:33:51;;;;;;;7.47;3.00;;;22.20;69.80;;;;;;4964511;28;20028;-74
2022/10/28 06:36:17;;;;;;;11.90;3.80;;;22.30;70.00;;;;;;4970271;28;20060;-73
2022/10/28 06:38:43;;;;;;;7.80;3.42;;;22.20;70.10;;;;;;4972636;28;20081;-74
2022/10/28 06:41:08;;;;;;;9.95;3.00;;;22.30;70.20;;;;;;4954244;28;20106;-73
2022/10/28 06:43:34;;;;;;;8.80;3.60;;;22.20;70.10;;;;;;4978875;28;20053;-74
2022/10/28 06:46:01;;;;;;;8.98;2.90;;;22.20;70.50;;;;;;5011379;28;20032;-73
2022/10/28 06:48:27;;;;;;;11.13;3.40;;;22.30;70.40;;;;;;5001326;28;20041;-73
2022/10/28 06:50:56;;;;;;;9.48;3.35;;;22.30;70.10;;;;;;5032828;28;20030;-74
2022/10/28 06:53:25;;;;;;;8.73;3.55;;;22.30;70.80;;;;;;4980361;28;20027;-73
2022/10/28 06:55:55;;;;;;;12.60;3.45;;;22.30;70.90;;;;;;5046020;28;20036;-75
2022/10/28 06:58:21;;;;;;;10.18;3.08;;;22.30;70.70;;;;;;5047388;28;20072;-73
2022/10/28 07:00:47;;;;;;;10.68;3.97;;;22.30;70.60;;;;;;4999060;28;20075;-74
2022/10/28 07:03:13;;;;;;;10.40;3.35;;;22.30;71.00;;;;;;5026704;28;20422;-74
2022/10/28 07:05:39;;;;;;;11.80;3.63;;;22.30;70.50;;;;;;4990407;28;20029;-74
2022/10/28 07:08:05;;;;;;;10.68;3.45;;;22.30;70.60;;;;;;5036919;28;20499;-74
2022/10/28 07:10:30;;;;;;;16.77;3.63;;;22.30;70.30;;;;;;4989593;22;20050;-75
2022/10/28 07:12:56;;;;;;;11.40;3.72;;;22.30;70.10;;;;;;4982730;28;20030;-74
2022/10/28 07:15:22;;;;;;;13.68;3.78;;;22.30;70.80;;;;;;5048889;28;20225;-74
2022/10/28 07:17:56;;;;;;;14.50;4.10;;;22.40;70.90;;;;;;4975747;28;20038;-86
2022/10/28 07:20:23;;;;;;;13.38;5.15;;;22.30;69.60;;;;;;4979211;28;20097;-86
2022/10/28 07:23:00;;;;;;;16.80;5.47;;;22.20;65.80;;;;;;4984850;28;20049;-75
2022/10/28 07:25:27;;;;;;;13.35;4.43;;;22.10;67.00;;;;;;4976586;28;20117;-74
2022/10/28 07:27:55;;;;;;;17.63;4.85;;;22.10;65.90;;;;;;4977896;28;20392;-75
2022/10/28 07:30:20;;;;;;;18.77;5.05;;;22.10;66.40;;;;;;4983280;28;20033;-74
2022/10/28 07:32:47;;;;;;;13.50;5.05;;;22.10;67.40;;;;;;4981639;28;20030;-74
2022/10/28 07:35:12;;;;;;;13.50;4.93;;;22.20;67.00;;;;;;4983041;28;20069;-74
2022/10/28 07:37:38;;;;;;;15.27;4.38;;;22.20;67.80;;;;;;4984747;28;20104;-75
2022/10/28 07:40:10;;;;;;;19.60;5.22;;;22.20;68.50;;;;;;4981099;28;20023;-75
2022/10/28 07:42:36;;;;;;;26.77;7.20;;;22.30;69.90;;;;;;4982621;28;20521;-75
2022/10/28 07:45:02;;;;;;;20.85;5.68;;;22.40;74.00;;;;;;4986100;28;20031;-74
2022/10/28 07:47:28;;;;;;;24.10;5.95;;;22.50;72.50;;;;;;4981672;28;20030;-74
2022/10/28 07:49:54;;;;;;;18.13;6.15;;;22.50;71.20;;;;;;4985690;28;20129;-79
2022/10/28 07:52:20;;;;;;;19.58;5.85;;;22.50;71.80;;;;;;4961763;28;20037;-78
2022/10/28 07:54:46;;;;;;;26.10;7.97;;;22.40;71.10;;;;;;4968250;28;20034;-78
2022/10/28 07:57:12;;;;;;;47.03;26.35;;;22.40;71.10;;;;;;4966043;28;20019;-78
2022/10/28 07:59:38;;;;;;;43.60;24.70;;;22.30;66.70;;;;;;4965460;28;20466;-77
2022/10/28 08:02:04;;;;;;;49.05;30.88;;;22.20;66.90;;;;;;4958715;28;20366;-76
2022/10/28 08:04:31;;;;;;;39.45;20.38;;;22.20;65.10;;;;;;4965644;28;20027;-75
2022/10/28 08:06:57;;;;;;;38.38;19.58;;;22.20;66.60;;;;;;4976706;28;20043;-75
2022/10/28 08:09:24;;;;;;;35.90;19.95;;;22.30;66.90;;;;;;4974968;23;20442;31
2022/10/28 08:11:54;;;;;;;29.95;17.70;;;22.30;67.60;;;;;;4912128;28;20055;-74
2022/10/28 08:14:20;;;;;;;42.53;18.20;;;22.40;67.50;;;;;;4907175;29;20486;-74
2022/10/28 08:16:46;;;;;;;33.15;16.25;;;22.40;67.10;;;;;;4910003;29;20028;-74
2022/10/28 08:19:12;;;;;;;24.58;14.15;;;22.40;66.20;;;;;;4896901;29;20036;-75
2022/10/28 08:21:37;;;;;;;30.38;14.65;;;22.30;66.00;;;;;;4892105;29;20037;-75
2022/10/28 08:24:03;;;;;;;48.65;31.55;;;22.30;67.00;;;;;;4893026;29;20028;-83
2022/10/28 08:26:29;;;;;;;44.15;27.15;;;22.30;66.90;;;;;;4893559;28;20082;-84
2022/10/28 08:28:55;;;;;;;32.90;19.92;;;22.30;68.30;;;;;;4889239;29;20020;-74
2022/10/28 08:31:21;;;;;;;32.10;19.35;;;22.30;66.40;;;;;;4875811;28;20175;-74
2022/10/28 08:33:46;;;;;;;36.63;19.90;;;22.30;66.80;;;;;;4892565;29;20071;-74
2022/10/28 08:36:15;;;;;;;38.75;20.42;;;22.30;66.60;;;;;;4892685;29;20072;-75
2022/10/28 08:38:46;;;;;;;36.15;21.77;;;22.40;66.30;;;;;;4890911;29;20032;-74
2022/10/28 08:41:37;;;;;;;37.10;23.20;;;22.40;66.20;;;;;;4892340;29;20037;-74
2022/10/28 08:44:24;;;;;;;39.50;24.35;;;22.40;66.30;;;;;;4903835;28;20058;-74
2022/10/28 08:47:29;;;;;;;38.92;23.90;;;22.40;66.70;;;;;;4990517;28;20050;-75
2022/10/28 08:50:17;;;;;;;42.47;26.05;;;22.40;67.10;;;;;;4970504;28;20041;-74
2022/10/28 08:52:54;;;;;;;40.22;24.73;;;22.40;66.90;;;;;;4989165;28;20046;-75
2022/10/28 08:55:42;;;;;;;42.22;23.95;;;22.40;66.80;;;;;;5004961;28;20030;-75
2022/10/28 08:58:19;;;;;;;40.47;23.80;;;22.40;67.50;;;;;;4991692;28;20030;-75
2022/10/28 09:00:51;;;;;;;50.75;23.75;;;22.50;67.20;;;;;;4991697;28;20543;-74
2022/10/28 09:03:24;;;;;;;35.65;22.55;;;22.40;67.30;;;;;;4990463;28;20074;-75
2022/10/28 09:06:01;;;;;;;37.42;23.38;;;22.50;68.20;;;;;;4973696;28;20038;-74
2022/10/28 09:08:30;;;;;;;35.88;23.52;;;22.50;67.60;;;;;;4991392;28;20044;-72
2022/10/28 09:11:07;;;;;;;33.75;21.67;;;22.50;67.60;;;;;;5014932;28;20029;-74
2022/10/28 09:13:45;;;;;;;34.50;22.05;;;22.50;67.60;;;;;;4986183;28;20452;-75
2022/10/28 09:16:33;;;;;;;34.28;22.50;;;22.50;67.70;;;;;;4948676;28;20050;-75
2022/10/28 09:19:12;;;;;;;33.05;22.48;;;22.60;67.80;;;;;;4948850;28;20066;-75
2022/10/28 09:21:51;;;;;;;41.00;22.63;;;22.60;67.90;;;;;;4949064;28;20046;-75
2022/10/28 09:24:28;;;;;;;;;;;22.60;68.00;;;;;;4947941;29;20485;-75
2022/10/28 09:27:03;;;;;;;36.88;21.90;;;22.60;68.10;;;;;;4947678;29;19918;-74
2022/10/28 09:29:54;;;;;;;34.03;21.05;;;22.60;68.20;;;;;;4948828;28;20601;-74
2022/10/28 09:32:41;;;;;;;32.83;21.35;;;22.60;68.30;;;;;;4947976;29;20032;-74
2022/10/28 09:35:19;;;;;;;34.95;20.52;;;22.60;68.40;;;;;;4948514;28;20488;-74
2022/10/28 09:37:51;;;;;;;29.90;20.65;;;22.60;68.50;;;;;;4947588;29;20069;-74
2022/10/28 09:40:33;;;;;;;31.48;21.58;;;22.60;68.50;;;;;;4948537;28;20114;-74
2022/10/28 09:43:17;;;;;;;33.35;20.17;;;22.60;68.60;;;;;;4948677;28;20042;-74
2022/10/28 09:45:47;;;;;;;33.03;20.58;;;22.60;68.70;;;;;;4947115;29;20031;-73
2022/10/28 09:48:19;;;;;;;32.10;20.60;;;22.60;68.70;;;;;;4948644;28;20120;-74
2022/10/28 09:50:48;;;;;;;32.00;20.90;;;22.60;68.80;;;;;;4948326;28;20035;-74
2022/10/28 09:53:38;;;;;;;32.47;20.30;;;22.60;68.80;;;;;;4947291;29;20177;-74
2022/10/28 09:56:05;;;;;;;30.38;19.75;;;22.60;68.80;;;;;;4948175;28;20164;-74
2022/10/28 09:58:35;;;;;;;32.65;19.80;;;22.60;68.90;;;;;;4947252;28;20035;-74
2022/10/28 10:01:02;;;;;;;29.42;19.63;;;22.60;68.90;;;;;;4947073;29;20031;-74
2022/10/28 10:03:28;;;;;;;32.78;20.40;;;22.60;68.90;;;;;;4946743;29;20051;-74
2022/10/28 10:05:59;;;;;;;27.02;18.77;;;22.60;69.60;;;;;;4931862;29;20114;-73
2022/10/28 10:08:24;;;;;;;35.35;19.88;;;22.60;69.20;;;;;;4932677;29;20081;-74
2022/10/28 10:11:00;;;;;;;31.50;19.52;;;22.60;69.10;;;;;;4930969;28;20522;-73
2022/10/28 10:13:29;;;;;;;32.88;19.60;;;22.60;69.20;;;;;;4932029;29;20040;-73
2022/10/28 10:16:01;;;;;;;32.70;18.83;;;22.60;69.20;;;;;;4932367;29;20430;-74
2022/10/28 10:18:35;;;;;;;32.63;18.25;;;22.60;69.10;;;;;;4929646;29;20019;-74
2022/10/28 10:21:01;;;;;;;31.65;19.45;;;22.60;68.80;;;;;;4927324;29;20032;-77
2022/10/28 10:23:31;;;;;;;32.03;18.45;;;22.60;67.70;;;;;;4930836;28;20107;-76
2022/10/28 10:26:09;;;;;;;29.25;18.50;;;22.60;67.60;;;;;;4945973;29;20055;-75
2022/10/28 10:28:47;;;;;;;34.30;20.20;;;22.60;67.20;;;;;;4945204;28;20036;-76
2022/10/28 10:31:22;;;;;;;28.75;19.48;;;22.50;67.30;;;;;;4928683;29;20024;-76
2022/10/28 10:33:50;;;;;;;33.67;21.58;;;22.50;67.40;;;;;;4929723;29;20126;-76
2022/10/28 10:36:20;;;;;;;48.08;31.35;;;22.50;66.90;;;;;;4932695;28;20043;-77
2022/10/28 10:38:53;;;;;;;43.58;32.20;;;22.50;66.80;;;;;;4932911;29;20455;-75
2022/10/28 10:41:40;;;;;;;42.28;29.80;;;22.50;67.10;;;;;;4933195;29;20050;-75
2022/10/28 10:44:21;;;;;;;42.15;26.63;;;22.50;66.80;;;;;;4933168;29;20502;-75
2022/10/28 10:46:59;;;;;;;36.40;22.77;;;22.50;66.70;;;;;;4933413;29;20070;-76
2022/10/28 10:49:26;;;;;;;31.65;17.55;;;22.50;66.90;;;;;;4932669;28;20060;-75
2022/10/28 10:51:57;;;;;;;27.48;17.52;;;22.50;66.00;;;;;;4926155;28;20027;-75
2022/10/28 10:54:25;;;;;;;28.02;15.27;;;22.50;66.20;;;;;;4931771;29;20062;-76
2022/10/28 10:56:51;;;;;;;23.67;11.93;;;22.50;66.20;;;;;;4932236;29;20036;-76
2022/10/28 10:59:27;;;;;;;29.10;12.55;;;22.50;65.80;;;;;;4932463;29;20074;-76
2022/10/28 11:01:55;;;;;;;25.02;12.40;;;22.50;66.00;;;;;;4931354;29;20020;-75
2022/10/28 11:04:24;;;;;;;24.95;11.45;;;22.50;66.50;;;;;;4931692;29;20119;-78
2022/10/28 11:06:58;;;;;;;23.35;9.35;;;22.60;66.60;;;;;;4932256;29;20110;-75
2022/10/28 11:09:32;;;;;;;26.85;9.68;;;22.60;65.60;;;;;;4931559;28;20059;-76
2022/10/28 11:11:58;;;;;;;22.00;8.98;;;22.60;66.10;;;;;;4943903;29;20111;-76
2022/10/28 11:14:30;;;;;;;26.00;10.25;;;22.60;66.00;;;;;;4930368;29;20565;-76
2022/10/28 11:17:01;;;;;;;27.58;9.88;;;22.60;66.10;;;;;;4926214;29;20058;-76
2022/10/28 11:19:32;;;;;;;20.45;9.70;;;22.60;66.00;;;;;;4931153;29;20023;-77
2022/10/28 11:22:16;;;;;;;21.50;9.77;;;22.60;66.10;;;;;;4930734;29;20379;-76
2022/10/28 11:25:19;;;;;;;18.23;8.75;;;22.60;65.90;;;;;;4931491;29;20163;-76
2022/10/28 11:27:56;;;;;;;18.00;7.95;;;22.60;66.10;;;;;;4931997;29;20524;-76
2022/10/28 11:30:32;;;;;;;17.58;7.15;;;22.60;65.70;;;;;;4931643;29;20040;-76
2022/10/28 11:33:24;;;;;;;16.23;6.70;;;22.60;66.20;;;;;;4931490;29;20028;-76
2022/10/28 11:36:32;;;;;;;18.42;6.95;;;22.60;65.50;;;;;;4930237;29;20090;-76
2022/10/28 11:39:00;;;;;;;15.32;6.53;;;22.60;65.30;;;;;;4951205;29;20489;-76
2022/10/28 11:41:57;;;;;;;16.15;6.63;;;22.60;65.20;;;;;;4951029;29;20485;-76
2022/10/28 11:44:49;;;;;;;15.75;6.53;;;22.60;65.30;;;;;;4912066;29;20032;-76
2022/10/28 11:47:33;;;;;;;15.68;6.18;;;22.60;65.50;;;;;;4931509;29;20110;-76
2022/10/28 11:50:14;;;;;;;18.63;6.10;;;22.70;65.30;;;;;;4931277;29;20050;-76
2022/10/28 11:52:51;;;;;;;13.80;5.90;;;22.60;65.50;;;;;;4914367;29;20036;-77
2022/10/28 11:55:31;;;;;;;14.63;5.85;;;22.70;65.60;;;;;;4931636;29;20078;-76
2022/10/28 11:58:39;;;;;;;16.30;6.63;;;22.60;65.70;;;;;;4931838;29;20031;-77
2022/10/28 12:01:30;;;;;;;14.10;5.90;;;22.60;65.70;;;;;;4940254;28;20048;-76
2022/10/28 12:04:27;;;;;;;12.88;5.90;;;22.60;65.60;;;;;;4931807;29;20062;-77
2022/10/28 12:07:02;;;;;;;16.52;6.38;;;22.60;66.00;;;;;;4912262;29;20036;-76
2022/10/28 12:09:49;;;;;;;13.82;5.25;;;22.60;66.20;;;;;;4929007;28;20028;-76
2022/10/28 12:12:24;;;;;;;17.60;5.75;;;22.60;67.00;;;;;;4931875;29;20035;-75
2022/10/28 12:15:14;;;;;;;19.65;5.68;;;22.60;67.50;;;;;;4946361;29;20049;-75
2022/10/28 12:17:43;;;;;;;;;;;22.60;66.90;;;;;;4946485;29;20038;-76
2022/10/28 12:20:29;;;;;;;16.77;5.65;;;22.60;66.90;;;;;;4940565;29;19915;-76
2022/10/28 12:23:02;;;;;;;19.73;5.88;;;22.60;67.20;;;;;;4929048;29;20047;-76
2022/10/28 12:25:32;;;;;;;17.33;5.50;;;22.60;66.80;;;;;;4928940;28;20501;-76
2022/10/28 12:28:03;;;;;;;27.08;5.90;;;22.70;67.00;;;;;;4930556;28;20101;-76
2022/10/28 12:30:33;;;;;;;29.02;7.15;;;22.70;67.10;;;;;;4944438;28;20090;-76
2022/10/28 12:33:12;;;;;;;24.75;7.38;;;22.70;67.30;;;;;;4930487;29;20126;-76
2022/10/28 12:35:53;;;;;;;18.57;6.13;;;22.70;67.40;;;;;;4928429;29;20024;-76
2022/10/28 12:38:34;;;;;;;24.02;7.40;;;22.70;66.90;;;;;;4938023;29;20069;-76
2022/10/28 12:41:06;;;;;;;22.73;6.63;;;22.70;67.10;;;;;;4925210;29;20504;-76
2022/10/28 12:43:39;;;;;;;26.90;7.60;;;22.70;66.90;;;;;;4930915;29;20054;-76
2022/10/28 12:46:24;;;;;;;28.15;7.22;;;22.70;67.00;;;;;;4931658;29;20497;-76
2022/10/28 12:48:55;;;;;;;28.40;7.68;;;22.80;66.80;;;;;;4930337;29;20110;-76
2022/10/28 12:51:27;;;;;;;25.58;7.18;;;22.80;66.90;;;;;;4928886;29;20173;-75
2022/10/28 12:54:13;;;;;;;34.45;8.32;;;22.80;67.40;;;;;;4928287;29;20078;-75
2022/10/28 12:56:48;;;;;;;30.13;8.27;;;22.80;66.90;;;;;;4930653;28;20090;-76
2022/10/28 12:59:39;;;;;;;30.80;9.07;;;22.80;67.10;;;;;;4935711;29;20028;-76
2022/10/28 13:02:19;;;;;;;28.83;8.00;;;22.90;67.20;;;;;;4926932;29;20043;-75